sensor_id;sensor_type;location;lat;lon;timestamp;pressure;altitude;pressure_sealevel;temperature;humidity
66703;BME280;60933;46.398;-63.798;2023-04-06T00:01:58;103006.47;;;-0.70;58.05
66703;BME280;60933;46.398;-63.798;2023-04-06T00:04:23;102998.47;;;-0.76;62.06
66703;BME280;60933;46.398;-63.798;2023-04-06T00:06:49;102993.84;;;-0.84;62.47
66703;BME280;60933;46.398;-63.798;2023-04-06T00:09:15;102995.03;;;-0.92;62.83
66703;BME280;60933;46.398;-63.798;2023-04-06T00:11:41;102983.59;;;-1.00;64.09
66703;BME280;60933;46.398;-63.798;2023-04-06T00:14:07;102984.09;;;-1.06;64.58
66703;BME280;60933;46.398;-63.798;2023-04-06T00:16:33;102989.75;;;-1.10;64.66
66703;BME280;60933;46.398;-63.798;2023-04-06T00:18:59;103003.13;;;-1.13;64.80
66703;BME280;60933;46.398;-63.798;2023-04-06T00:21:25;102990.97;;;-1.18;62.94
66703;BME280;60933;46.398;-63.798;2023-04-06T00:23:51;102993.41;;;-1.20;64.57
66703;BME280;60933;46.398;-63.798;2023-04-06T00:26:17;102985.66;;;-1.23;61.82
66703;BME280;60933;46.398;-63.798;2023-04-06T00:28:42;102990.59;;;-1.24;62.92
66703;BME280;60933;46.398;-63.798;2023-04-06T00:31:08;102982.44;;;-1.34;66.28
66703;BME280;60933;46.398;-63.798;2023-04-06T00:33:34;102979.47;;;-1.41;65.93
66703;BME280;60933;46.398;-63.798;2023-04-06T00:36:00;102994.56;;;-1.43;67.08
66703;BME280;60933;46.398;-63.798;2023-04-06T00:38:26;102994.28;;;-1.48;68.67
66703;BME280;60933;46.398;-63.798;2023-04-06T00:40:52;103001.69;;;-1.51;68.91
66703;BME280;60933;46.398;-63.798;2023-04-06T00:43:18;102988.84;;;-1.54;67.78
66703;BME280;60933;46.398;-63.798;2023-04-06T00:45:44;102988.66;;;-1.57;68.24
66703;BME280;60933;46.398;-63.798;2023-04-06T00:48:10;102983.31;;;-1.62;68.23
66703;BME280;60933;46.398;-63.798;2023-04-06T00:50:36;102978.94;;;-1.64;68.93
66703;BME280;60933;46.398;-63.798;2023-04-06T00:53:02;102977.94;;;-1.66;69.70
66703;BME280;60933;46.398;-63.798;2023-04-06T00:55:31;102970.59;;;-1.77;70.38
66703;BME280;60933;46.398;-63.798;2023-04-06T00:57:58;102983.63;;;-1.70;70.81
66703;BME280;60933;46.398;-63.798;2023-04-06T01:00:26;102957.44;;;-1.84;70.08
66703;BME280;60933;46.398;-63.798;2023-04-06T01:02:52;102989.25;;;-1.75;70.85
66703;BME280;60933;46.398;-63.798;2023-04-06T01:05:19;103003.50;;;-1.77;70.13
66703;BME280;60933;46.398;-63.798;2023-04-06T01:07:45;102999.78;;;-1.82;70.51
66703;BME280;60933;46.398;-63.798;2023-04-06T01:10:25;103004.78;;;-1.83;70.13
66703;BME280;60933;46.398;-63.798;2023-04-06T01:12:51;103002.94;;;-1.86;69.69
66703;BME280;60933;46.398;-63.798;2023-04-06T01:15:17;103018.88;;;-1.87;70.33
66703;BME280;60933;46.398;-63.798;2023-04-06T01:17:43;103022.81;;;-1.92;70.88
66703;BME280;60933;46.398;-63.798;2023-04-06T01:20:09;103026.00;;;-1.95;71.12
66703;BME280;60933;46.398;-63.798;2023-04-06T01:22:35;103025.13;;;-1.95;71.32
66703;BME280;60933;46.398;-63.798;2023-04-06T01:25:01;103024.91;;;-1.98;71.29
66703;BME280;60933;46.398;-63.798;2023-04-06T01:27:27;103014.63;;;-2.01;71.88
66703;BME280;60933;46.398;-63.798;2023-04-06T01:29:55;103006.91;;;-2.03;71.49
66703;BME280;60933;46.398;-63.798;2023-04-06T01:32:22;103017.16;;;-2.01;71.79
66703;BME280;60933;46.398;-63.798;2023-04-06T01:34:48;103006.63;;;-2.08;72.49
66703;BME280;60933;46.398;-63.798;2023-04-06T01:37:13;103008.47;;;-2.05;71.81
66703;BME280;60933;46.398;-63.798;2023-04-06T01:39:40;103005.06;;;-2.05;72.28
66703;BME280;60933;46.398;-63.798;2023-04-06T01:42:06;102991.94;;;-2.13;69.31
66703;BME280;60933;46.398;-63.798;2023-04-06T01:44:32;103004.97;;;-2.07;70.99
66703;BME280;60933;46.398;-63.798;2023-04-06T01:46:58;102993.78;;;-2.11;71.33
66703;BME280;60933;46.398;-63.798;2023-04-06T01:49:24;102991.03;;;-2.14;71.28
66703;BME280;60933;46.398;-63.798;2023-04-06T01:51:50;102988.31;;;-2.17;72.25
66703;BME280;60933;46.398;-63.798;2023-04-06T01:54:16;102983.84;;;-2.21;72.89
66703;BME280;60933;46.398;-63.798;2023-04-06T01:56:42;102990.56;;;-2.21;73.19
66703;BME280;60933;46.398;-63.798;2023-04-06T01:59:08;102982.97;;;-2.21;72.47
66703;BME280;60933;46.398;-63.798;2023-04-06T02:01:34;102992.03;;;-2.25;74.28
66703;BME280;60933;46.398;-63.798;2023-04-06T02:04:00;102986.88;;;-2.27;74.66
66703;BME280;60933;46.398;-63.798;2023-04-06T02:06:26;102982.59;;;-2.28;75.43
66703;BME280;60933;46.398;-63.798;2023-04-06T02:08:52;102997.66;;;-2.29;75.32
66703;BME280;60933;46.398;-63.798;2023-04-06T02:11:18;102984.91;;;-2.31;73.29
66703;BME280;60933;46.398;-63.798;2023-04-06T02:13:44;102989.09;;;-2.31;74.53
66703;BME280;60933;46.398;-63.798;2023-04-06T02:16:10;102978.09;;;-2.32;75.24
66703;BME280;60933;46.398;-63.798;2023-04-06T02:18:36;102967.03;;;-2.34;75.53
66703;BME280;60933;46.398;-63.798;2023-04-06T02:21:02;102971.19;;;-2.34;75.01
66703;BME280;60933;46.398;-63.798;2023-04-06T02:23:28;102958.63;;;-2.46;72.40
66703;BME280;60933;46.398;-63.798;2023-04-06T02:25:54;102960.84;;;-2.38;72.20
66703;BME280;60933;46.398;-63.798;2023-04-06T02:28:20;102965.13;;;-2.36;73.33
66703;BME280;60933;46.398;-63.798;2023-04-06T02:30:46;102965.75;;;-2.41;74.80
66703;BME280;60933;46.398;-63.798;2023-04-06T02:33:11;102967.59;;;-2.38;74.00
66703;BME280;60933;46.398;-63.798;2023-04-06T02:35:38;102964.97;;;-2.40;75.24
66703;BME280;60933;46.398;-63.798;2023-04-06T02:38:03;102957.38;;;-2.40;76.48
66703;BME280;60933;46.398;-63.798;2023-04-06T02:40:29;102957.38;;;-2.40;75.69
66703;BME280;60933;46.398;-63.798;2023-04-06T02:42:56;102963.91;;;-2.43;76.09
66703;BME280;60933;46.398;-63.798;2023-04-06T02:45:22;102952.78;;;-2.45;76.33
66703;BME280;60933;46.398;-63.798;2023-04-06T02:47:47;102960.28;;;-2.47;76.88
66703;BME280;60933;46.398;-63.798;2023-04-06T02:50:13;102950.72;;;-2.51;76.95
66703;BME280;60933;46.398;-63.798;2023-04-06T02:52:40;102942.00;;;-2.56;77.82
66703;BME280;60933;46.398;-63.798;2023-04-06T02:55:07;102948.31;;;-2.49;76.88
66703;BME280;60933;46.398;-63.798;2023-04-06T02:57:33;102950.06;;;-2.48;77.49
66703;BME280;60933;46.398;-63.798;2023-04-06T02:59:59;102954.25;;;-2.49;78.46
66703;BME280;60933;46.398;-63.798;2023-04-06T03:02:25;102953.47;;;-2.48;78.33
66703;BME280;60933;46.398;-63.798;2023-04-06T03:04:53;102942.47;;;-2.48;78.36
66703;BME280;60933;46.398;-63.798;2023-04-06T03:07:18;102940.81;;;-2.48;79.27
66703;BME280;60933;46.398;-63.798;2023-04-06T03:09:44;102930.72;;;-2.48;77.75
66703;BME280;60933;46.398;-63.798;2023-04-06T03:12:10;102935.78;;;-2.48;79.06
66703;BME280;60933;46.398;-63.798;2023-04-06T03:14:37;102918.84;;;-2.49;78.44
66703;BME280;60933;46.398;-63.798;2023-04-06T03:17:02;102905.34;;;-2.49;79.48
66703;BME280;60933;46.398;-63.798;2023-04-06T03:19:28;102896.66;;;-2.53;79.63
66703;BME280;60933;46.398;-63.798;2023-04-06T03:21:54;102895.09;;;-2.51;79.47
66703;BME280;60933;46.398;-63.798;2023-04-06T03:24:21;102895.09;;;-2.51;80.41
66703;BME280;60933;46.398;-63.798;2023-04-06T03:26:46;102883.50;;;-2.47;80.60
66703;BME280;60933;46.398;-63.798;2023-04-06T03:29:12;102872.34;;;-2.51;80.53
66703;BME280;60933;46.398;-63.798;2023-04-06T03:31:38;102875.84;;;-2.49;80.20
66703;BME280;60933;46.398;-63.798;2023-04-06T03:34:04;102869.13;;;-2.48;80.42
66703;BME280;60933;46.398;-63.798;2023-04-06T03:36:31;102860.38;;;-2.53;79.67
66703;BME280;60933;46.398;-63.798;2023-04-06T03:38:56;102879.22;;;-2.48;80.07
66703;BME280;60933;46.398;-63.798;2023-04-06T03:41:23;102871.56;;;-2.50;80.67
66703;BME280;60933;46.398;-63.798;2023-04-06T03:43:49;102874.09;;;-2.50;80.65
66703;BME280;60933;46.398;-63.798;2023-04-06T03:46:15;102867.28;;;-2.51;80.93
66703;BME280;60933;46.398;-63.798;2023-04-06T03:48:41;102854.63;;;-2.51;80.28
66703;BME280;60933;46.398;-63.798;2023-04-06T03:51:07;102859.81;;;-2.49;80.36
66703;BME280;60933;46.398;-63.798;2023-04-06T03:53:33;102854.47;;;-2.54;79.77
66703;BME280;60933;46.398;-63.798;2023-04-06T03:55:58;102854.63;;;-2.51;80.59
66703;BME280;60933;46.398;-63.798;2023-04-06T03:58:25;102853.69;;;-2.53;80.39
66703;BME280;60933;46.398;-63.798;2023-04-06T04:00:51;102857.06;;;-2.52;79.06
66703;BME280;60933;46.398;-63.798;2023-04-06T04:03:17;102862.13;;;-2.52;79.84
66703;BME280;60933;46.398;-63.798;2023-04-06T04:05:43;102875.53;;;-2.53;79.26
66703;BME280;60933;46.398;-63.798;2023-04-06T04:08:09;102873.91;;;-2.53;80.27
66703;BME280;60933;46.398;-63.798;2023-04-06T04:10:35;102868.84;;;-2.53;80.57
66703;BME280;60933;46.398;-63.798;2023-04-06T04:13:01;102880.69;;;-2.52;80.80
66703;BME280;60933;46.398;-63.798;2023-04-06T04:15:27;102880.81;;;-2.50;80.87
66703;BME280;60933;46.398;-63.798;2023-04-06T04:17:53;102876.63;;;-2.50;80.69
66703;BME280;60933;46.398;-63.798;2023-04-06T04:20:18;102881.75;;;-2.48;81.22
66703;BME280;60933;46.398;-63.798;2023-04-06T04:22:45;102880.69;;;-2.52;80.41
66703;BME280;60933;46.398;-63.798;2023-04-06T04:25:11;102888.50;;;-2.49;80.31
66703;BME280;60933;46.398;-63.798;2023-04-06T04:27:36;102884.28;;;-2.48;81.05
66703;BME280;60933;46.398;-63.798;2023-04-06T04:30:03;102896.16;;;-2.47;81.16
66703;BME280;60933;46.398;-63.798;2023-04-06T04:32:29;102886.66;;;-2.51;80.73
66703;BME280;60933;46.398;-63.798;2023-04-06T04:34:55;102899.59;;;-2.47;80.49
66703;BME280;60933;46.398;-63.798;2023-04-06T04:37:21;102893.63;;;-2.47;80.66
66703;BME280;60933;46.398;-63.798;2023-04-06T04:39:47;102883.63;;;-2.46;80.95
66703;BME280;60933;46.398;-63.798;2023-04-06T04:42:13;102867.56;;;-2.46;80.93
66703;BME280;60933;46.398;-63.798;2023-04-06T04:44:39;102850.75;;;-2.46;81.20
66703;BME280;60933;46.398;-63.798;2023-04-06T04:47:05;102846.47;;;-2.47;80.67
66703;BME280;60933;46.398;-63.798;2023-04-06T04:49:31;102844.81;;;-2.46;81.15
66703;BME280;60933;46.398;-63.798;2023-04-06T04:51:57;102835.38;;;-2.49;80.79
66703;BME280;60933;46.398;-63.798;2023-04-06T04:54:23;102845.69;;;-2.46;81.26
66703;BME280;60933;46.398;-63.798;2023-04-06T04:56:49;102842.28;;;-2.46;81.82
66703;BME280;60933;46.398;-63.798;2023-04-06T04:59:15;102827.59;;;-2.52;81.47
66703;BME280;60933;46.398;-63.798;2023-04-06T05:01:42;102823.59;;;-2.48;81.74
66703;BME280;60933;46.398;-63.798;2023-04-06T05:04:07;102818.66;;;-2.47;81.69
66703;BME280;60933;46.398;-63.798;2023-04-06T05:06:33;102817.88;;;-2.46;81.90
66703;BME280;60933;46.398;-63.798;2023-04-06T05:08:59;102811.94;;;-2.46;82.15
66703;BME280;60933;46.398;-63.798;2023-04-06T05:11:25;102795.50;;;-2.53;81.68
66703;BME280;60933;46.398;-63.798;2023-04-06T05:13:51;102815.34;;;-2.46;81.43
66703;BME280;60933;46.398;-63.798;2023-04-06T05:16:17;102805.03;;;-2.49;81.87
66703;BME280;60933;46.398;-63.798;2023-04-06T05:18:43;102807.75;;;-2.46;81.26
66703;BME280;60933;46.398;-63.798;2023-04-06T05:21:10;102815.34;;;-2.46;81.47
66703;BME280;60933;46.398;-63.798;2023-04-06T05:23:37;102806.00;;;-2.47;81.54
66703;BME280;60933;46.398;-63.798;2023-04-06T05:26:02;102811.94;;;-2.46;82.06
66703;BME280;60933;46.398;-63.798;2023-04-06T05:28:28;102806.78;;;-2.48;81.06
66703;BME280;60933;46.398;-63.798;2023-04-06T05:30:55;102792.38;;;-2.49;81.22
66703;BME280;60933;46.398;-63.798;2023-04-06T05:33:23;102798.41;;;-2.47;81.31
66703;BME280;60933;46.398;-63.798;2023-04-06T05:35:49;102786.47;;;-2.49;81.36
66703;BME280;60933;46.398;-63.798;2023-04-06T05:38:15;102781.41;;;-2.49;81.44
66703;BME280;60933;46.398;-63.798;2023-04-06T05:40:41;102771.38;;;-2.48;81.55
66703;BME280;60933;46.398;-63.798;2023-04-06T05:43:08;102751.72;;;-2.52;81.08
66703;BME280;60933;46.398;-63.798;2023-04-06T05:45:33;102750.16;;;-2.50;81.41
66703;BME280;60933;46.398;-63.798;2023-04-06T05:48:03;102731.13;;;-2.58;81.17
66703;BME280;60933;46.398;-63.798;2023-04-06T05:50:29;102742.56;;;-2.50;81.50
66703;BME280;60933;46.398;-63.798;2023-04-06T05:52:55;102741.03;;;-2.48;82.01
66703;BME280;60933;46.398;-63.798;2023-04-06T05:55:21;102742.66;;;-2.48;81.53
66703;BME280;60933;46.398;-63.798;2023-04-06T05:57:47;102744.25;;;-2.50;81.50
66703;BME280;60933;46.398;-63.798;2023-04-06T06:00:13;102749.38;;;-2.49;81.03
66703;BME280;60933;46.398;-63.798;2023-04-06T06:02:40;102730.72;;;-2.51;81.55
66703;BME280;60933;46.398;-63.798;2023-04-06T06:05:08;102715.44;;;-2.52;81.41
66703;BME280;60933;46.398;-63.798;2023-04-06T06:07:36;102709.63;;;-2.51;81.12
66703;BME280;60933;46.398;-63.798;2023-04-06T06:10:02;102713.00;;;-2.51;81.37
66703;BME280;60933;46.398;-63.798;2023-04-06T06:12:31;102696.06;;;-2.52;81.23
66703;BME280;60933;46.398;-63.798;2023-04-06T06:14:57;102704.56;;;-2.51;81.55
66703;BME280;60933;46.398;-63.798;2023-04-06T06:17:23;102684.03;;;-2.56;81.52
66703;BME280;60933;46.398;-63.798;2023-04-06T06:19:49;102698.72;;;-2.50;81.60
66703;BME280;60933;46.398;-63.798;2023-04-06T06:22:15;102689.47;;;-2.50;81.79
66703;BME280;60933;46.398;-63.798;2023-04-06T06:24:40;102692.78;;;-2.51;81.81
66703;BME280;60933;46.398;-63.798;2023-04-06T06:27:07;102687.72;;;-2.51;81.48
66703;BME280;60933;46.398;-63.798;2023-04-06T06:29:33;102694.34;;;-2.53;81.45
66703;BME280;60933;46.398;-63.798;2023-04-06T06:31:59;102682.66;;;-2.51;81.55
66703;BME280;60933;46.398;-63.798;2023-04-06T06:34:25;102674.13;;;-2.53;82.29
66703;BME280;60933;46.398;-63.798;2023-04-06T06:36:51;102661.56;;;-2.51;82.17
66703;BME280;60933;46.398;-63.798;2023-04-06T06:39:17;102657.38;;;-2.51;82.58
66703;BME280;60933;46.398;-63.798;2023-04-06T06:41:43;102641.34;;;-2.51;82.56
66703;BME280;60933;46.398;-63.798;2023-04-06T06:44:09;102640.44;;;-2.52;82.23
66703;BME280;60933;46.398;-63.798;2023-04-06T06:46:34;102634.59;;;-2.51;82.63
66703;BME280;60933;46.398;-63.798;2023-04-06T06:49:00;102630.44;;;-2.50;82.95
66703;BME280;60933;46.398;-63.798;2023-04-06T06:51:26;102629.53;;;-2.51;82.50
66703;BME280;60933;46.398;-63.798;2023-04-06T06:53:52;102635.50;;;-2.50;82.67
66703;BME280;60933;46.398;-63.798;2023-04-06T06:56:18;102648.13;;;-2.50;82.17
66703;BME280;60933;46.398;-63.798;2023-04-06T06:58:44;102621.09;;;-2.51;82.67
66703;BME280;60933;46.398;-63.798;2023-04-06T07:01:10;102580.63;;;-2.51;82.45
66703;BME280;60933;46.398;-63.798;2023-04-06T07:03:37;102580.72;;;-2.50;82.65
66703;BME280;60933;46.398;-63.798;2023-04-06T07:06:02;102585.69;;;-2.51;82.39
66703;BME280;60933;46.398;-63.798;2023-04-06T07:08:28;102573.06;;;-2.51;82.63
66703;BME280;60933;46.398;-63.798;2023-04-06T07:10:55;102569.53;;;-2.53;82.58
66703;BME280;60933;46.398;-63.798;2023-04-06T07:13:24;102568.06;;;-2.50;82.55
66703;BME280;60933;46.398;-63.798;2023-04-06T07:15:52;102582.38;;;-2.50;82.83
66703;BME280;60933;46.398;-63.798;2023-04-06T07:18:18;102580.03;;;-2.47;83.13
66703;BME280;60933;46.398;-63.798;2023-04-06T07:20:45;102549.78;;;-2.46;82.45
66703;BME280;60933;46.398;-63.798;2023-04-06T07:23:11;102531.19;;;-2.46;82.16
66703;BME280;60933;46.398;-63.798;2023-04-06T07:25:37;102538.00;;;-2.45;82.15
66703;BME280;60933;46.398;-63.798;2023-04-06T07:28:03;102548.63;;;-2.51;82.50
66703;BME280;60933;46.398;-63.798;2023-04-06T07:30:30;102570.09;;;-2.44;83.19
66703;BME280;60933;46.398;-63.798;2023-04-06T07:32:56;102581.19;;;-2.42;83.18
66703;BME280;60933;46.398;-63.798;2023-04-06T07:35:24;102577.75;;;-2.43;83.48
66703;BME280;60933;46.398;-63.798;2023-04-06T07:37:50;102572.00;;;-2.40;83.76
66703;BME280;60933;46.398;-63.798;2023-04-06T07:40:16;102574.63;;;-2.39;83.49
66703;BME280;60933;46.398;-63.798;2023-04-06T07:42:45;102577.16;;;-2.39;83.47
66703;BME280;60933;46.398;-63.798;2023-04-06T07:45:11;102579.44;;;-2.43;83.97
66703;BME280;60933;46.398;-63.798;2023-04-06T07:47:37;102602.53;;;-2.37;83.34
66703;BME280;60933;46.398;-63.798;2023-04-06T07:50:03;102601.66;;;-2.38;83.69
66703;BME280;60933;46.398;-63.798;2023-04-06T07:52:29;102583.78;;;-2.41;83.34
66703;BME280;60933;46.398;-63.798;2023-04-06T07:54:58;102558.50;;;-2.41;83.26
66703;BME280;60933;46.398;-63.798;2023-04-06T07:57:24;102553.44;;;-2.41;82.71
66703;BME280;60933;46.398;-63.798;2023-04-06T07:59:50;102561.81;;;-2.42;83.32
66703;BME280;60933;46.398;-63.798;2023-04-06T08:02:16;102558.31;;;-2.44;83.01
66703;BME280;60933;46.398;-63.798;2023-04-06T08:04:43;102566.09;;;-2.41;83.53
66703;BME280;60933;46.398;-63.798;2023-04-06T08:07:09;102557.19;;;-2.49;83.42
66703;BME280;60933;46.398;-63.798;2023-04-06T08:09:34;102574.63;;;-2.39;83.73
66703;BME280;60933;46.398;-63.798;2023-04-06T08:12:01;102578.09;;;-2.36;84.07
66703;BME280;60933;46.398;-63.798;2023-04-06T08:14:27;102586.66;;;-2.34;83.90
66703;BME280;60933;46.398;-63.798;2023-04-06T08:16:52;102591.13;;;-2.30;84.31
66703;BME280;60933;46.398;-63.798;2023-04-06T08:19:18;102593.66;;;-2.30;84.24
66703;BME280;60933;46.398;-63.798;2023-04-06T08:21:45;102601.41;;;-2.27;83.98
66703;BME280;60933;46.398;-63.798;2023-04-06T08:24:13;102604.03;;;-2.26;83.80
66703;BME280;60933;46.398;-63.798;2023-04-06T08:26:40;102614.25;;;-2.24;84.77
66703;BME280;60933;46.398;-63.798;2023-04-06T08:29:06;102614.16;;;-2.26;84.27
66703;BME280;60933;46.398;-63.798;2023-04-06T08:31:35;102606.66;;;-2.24;84.65
66703;BME280;60933;46.398;-63.798;2023-04-06T08:34:04;102586.22;;;-2.27;85.08
66703;BME280;60933;46.398;-63.798;2023-04-06T08:36:31;102592.41;;;-2.22;85.05
66703;BME280;60933;46.398;-63.798;2023-04-06T08:38:59;102590.78;;;-2.21;85.21
66703;BME280;60933;46.398;-63.798;2023-04-06T08:41:35;102598.38;;;-2.21;84.96
66703;BME280;60933;46.398;-63.798;2023-04-06T08:44:02;102592.63;;;-2.19;85.15
66703;BME280;60933;46.398;-63.798;2023-04-06T08:46:34;102587.47;;;-2.20;85.14
66703;BME280;60933;46.398;-63.798;2023-04-06T08:49:19;102539.03;;;-2.42;85.43
66703;BME280;60933;46.398;-63.798;2023-04-06T08:51:58;102562.88;;;-2.23;85.70
66703;BME280;60933;46.398;-63.798;2023-04-06T08:57:20;102574.47;;;-2.12;85.44
66703;BME280;60933;46.398;-63.798;2023-04-06T08:59:47;102582.25;;;-2.09;86.20
66703;BME280;60933;46.398;-63.798;2023-04-06T09:02:20;102549.78;;;-2.16;85.93
66703;BME280;60933;46.398;-63.798;2023-04-06T09:04:48;102563.75;;;-2.08;86.14
66703;BME280;60933;46.398;-63.798;2023-04-06T09:07:15;102568.81;;;-2.08;86.27
66703;BME280;60933;46.398;-63.798;2023-04-06T09:09:42;102565.47;;;-2.07;86.34
66703;BME280;60933;46.398;-63.798;2023-04-06T09:12:26;102568.09;;;-2.05;86.07
66703;BME280;60933;46.398;-63.798;2023-04-06T09:14:53;102571.50;;;-2.04;86.45
66703;BME280;60933;46.398;-63.798;2023-04-06T09:17:24;102566.50;;;-2.03;86.94
66703;BME280;60933;46.398;-63.798;2023-04-06T09:19:51;102558.84;;;-2.04;86.51
66703;BME280;60933;46.398;-63.798;2023-04-06T09:22:18;102555.72;;;-2.00;86.78
66703;BME280;60933;46.398;-63.798;2023-04-06T09:24:47;102554.13;;;-1.98;86.63
66703;BME280;60933;46.398;-63.798;2023-04-06T09:27:14;102548.13;;;-2.00;86.74
66703;BME280;60933;46.398;-63.798;2023-04-06T09:29:41;102562.69;;;-1.96;86.24
66703;BME280;60933;46.398;-63.798;2023-04-06T09:32:09;102565.28;;;-1.95;86.23
66703;BME280;60933;46.398;-63.798;2023-04-06T09:34:42;102555.88;;;-1.97;86.55
66703;BME280;60933;46.398;-63.798;2023-04-06T09:37:15;102555.16;;;-1.95;86.50
66703;BME280;60933;46.398;-63.798;2023-04-06T09:39:41;102557.94;;;-1.90;86.16
66703;BME280;60933;46.398;-63.798;2023-04-06T09:42:07;102554.63;;;-1.89;85.84
66703;BME280;60933;46.398;-63.798;2023-04-06T09:44:33;102558.13;;;-1.87;86.52
66703;BME280;60933;46.398;-63.798;2023-04-06T09:47:00;102558.13;;;-1.87;85.70
66703;BME280;60933;46.398;-63.798;2023-04-06T09:49:30;102572.69;;;-1.83;85.85
66703;BME280;60933;46.398;-63.798;2023-04-06T09:52:02;102591.19;;;-1.84;85.93
66703;BME280;60933;46.398;-63.798;2023-04-06T09:54:31;102574.53;;;-1.80;86.37
66703;BME280;60933;46.398;-63.798;2023-04-06T09:57:32;102554.38;;;-1.79;86.14
66703;BME280;60933;46.398;-63.798;2023-04-06T10:00:05;102559.56;;;-1.76;85.42
66703;BME280;60933;46.398;-63.798;2023-04-06T10:05:46;102503.28;;;-1.71;85.38
66703;BME280;60933;46.398;-63.798;2023-04-06T10:08:15;102493.94;;;-1.72;85.17
66703;BME280;60933;46.398;-63.798;2023-04-06T10:10:42;102491.56;;;-1.69;85.13
66703;BME280;60933;46.398;-63.798;2023-04-06T10:13:11;102477.41;;;-1.66;84.86
66703;BME280;60933;46.398;-63.798;2023-04-06T10:15:38;102480.19;;;-1.61;84.80
66703;BME280;60933;46.398;-63.798;2023-04-06T10:18:08;102460.06;;;-1.58;84.47
66703;BME280;60933;46.398;-63.798;2023-04-06T10:25:55;102445.38;;;-1.49;84.88
66703;BME280;60933;46.398;-63.798;2023-04-06T10:28:22;102446.34;;;-1.47;84.68
66703;BME280;60933;46.398;-63.798;2023-04-06T10:30:48;102430.47;;;-1.42;84.24
66703;BME280;60933;46.398;-63.798;2023-04-06T10:33:15;102429.03;;;-1.37;83.94
66703;BME280;60933;46.398;-63.798;2023-04-06T10:35:42;102421.44;;;-1.37;83.29
66703;BME280;60933;46.398;-63.798;2023-04-06T10:38:07;102441.09;;;-1.33;83.41
66703;BME280;60933;46.398;-63.798;2023-04-06T10:40:38;102449.66;;;-1.31;82.97
66703;BME280;60933;46.398;-63.798;2023-04-06T10:43:12;102449.00;;;-1.27;82.91
66703;BME280;60933;46.398;-63.798;2023-04-06T10:45:39;102444.91;;;-1.25;83.02
66703;BME280;60933;46.398;-63.798;2023-04-06T10:48:16;102442.59;;;-1.20;82.60
66703;BME280;60933;46.398;-63.798;2023-04-06T10:50:48;102424.38;;;-1.13;82.63
66703;BME280;60933;46.398;-63.798;2023-04-06T10:53:24;102421.97;;;-1.10;82.16
66703;BME280;60933;46.398;-63.798;2023-04-06T10:55:51;102410.19;;;-1.09;81.96
66703;BME280;60933;46.398;-63.798;2023-04-06T10:58:18;102418.97;;;-1.03;81.02
66703;BME280;60933;46.398;-63.798;2023-04-06T11:00:45;102430.34;;;-0.94;81.27
66703;BME280;60933;46.398;-63.798;2023-04-06T11:03:12;102433.41;;;-0.84;81.14
66703;BME280;60933;46.398;-63.798;2023-04-06T11:05:38;102426.94;;;-0.78;81.22
66703;BME280;60933;46.398;-63.798;2023-04-06T11:08:04;102404.97;;;-0.78;80.95
66703;BME280;60933;46.398;-63.798;2023-04-06T11:10:30;102380.56;;;-0.76;80.91
66703;BME280;60933;46.398;-63.798;2023-04-06T11:12:56;102365.41;;;-0.74;81.05
66703;BME280;60933;46.398;-63.798;2023-04-06T11:15:22;102364.84;;;-0.69;80.07
66703;BME280;60933;46.398;-63.798;2023-04-06T11:17:49;102357.97;;;-0.71;80.20
66703;BME280;60933;46.398;-63.798;2023-04-06T11:20:15;102362.59;;;-0.62;79.70
66703;BME280;60933;46.398;-63.798;2023-04-06T11:22:52;102357.88;;;-0.55;79.12
66703;BME280;60933;46.398;-63.798;2023-04-06T11:25:18;102362.78;;;-0.40;79.96
66703;BME280;60933;46.398;-63.798;2023-04-06T11:27:46;102368.25;;;-0.12;79.00
66703;BME280;60933;46.398;-63.798;2023-04-06T11:30:13;102348.00;;;0.07;79.22
66703;BME280;60933;46.398;-63.798;2023-04-06T11:32:41;102335.97;;;0.23;79.28
66703;BME280;60933;46.398;-63.798;2023-04-06T11:35:21;102350.13;;;0.37;78.59
66703;BME280;60933;46.398;-63.798;2023-04-06T11:37:51;102359.47;;;0.58;77.47
66703;BME280;60933;46.398;-63.798;2023-04-06T11:40:23;102363.47;;;0.72;76.88
66703;BME280;60933;46.398;-63.798;2023-04-06T11:42:54;102371.66;;;0.86;75.81
66703;BME280;60933;46.398;-63.798;2023-04-06T11:45:22;102377.44;;;1.03;75.96
66703;BME280;60933;46.398;-63.798;2023-04-06T11:47:59;102382.22;;;1.17;75.20
66703;BME280;60933;46.398;-63.798;2023-04-06T11:50:32;102386.63;;;1.21;75.23
66703;BME280;60933;46.398;-63.798;2023-04-06T11:53:02;102398.56;;;1.22;74.57
66703;BME280;60933;46.398;-63.798;2023-04-06T11:55:28;102409.44;;;1.19;74.45
66703;BME280;60933;46.398;-63.798;2023-04-06T11:57:54;102403.38;;;1.16;74.39
66703;BME280;60933;46.398;-63.798;2023-04-06T12:00:21;102399.16;;;1.16;74.71
66703;BME280;60933;46.398;-63.798;2023-04-06T12:02:48;102406.41;;;1.28;73.91
66703;BME280;60933;46.398;-63.798;2023-04-06T12:05:14;102407.38;;;1.30;73.76
66703;BME280;60933;46.398;-63.798;2023-04-06T12:07:40;102381.97;;;1.32;74.29
66703;BME280;60933;46.398;-63.798;2023-04-06T12:10:07;102365.50;;;1.45;73.97
66703;BME280;60933;46.398;-63.798;2023-04-06T12:12:33;102358.34;;;1.57;73.68
66703;BME280;60933;46.398;-63.798;2023-04-06T12:14:59;102363.63;;;1.62;73.79
66703;BME280;60933;46.398;-63.798;2023-04-06T12:17:26;102354.88;;;1.78;73.01
66703;BME280;60933;46.398;-63.798;2023-04-06T12:19:52;102342.59;;;1.90;72.98
66703;BME280;60933;46.398;-63.798;2023-04-06T12:22:18;102340.72;;;2.09;72.33
66703;BME280;60933;46.398;-63.798;2023-04-06T12:24:44;102345.13;;;2.13;72.22
66703;BME280;60933;46.398;-63.798;2023-04-06T12:27:10;102356.34;;;2.18;71.94
66703;BME280;60933;46.398;-63.798;2023-04-06T12:29:37;102374.00;;;2.13;71.76
66703;BME280;60933;46.398;-63.798;2023-04-06T12:32:04;102353.09;;;1.99;71.87
66703;BME280;60933;46.398;-63.798;2023-04-06T12:34:31;102359.94;;;2.00;72.50
66703;BME280;60933;46.398;-63.798;2023-04-06T12:36:57;102353.22;;;2.02;71.92
66703;BME280;60933;46.398;-63.798;2023-04-06T12:39:23;102346.63;;;2.08;71.81
66703;BME280;60933;46.398;-63.798;2023-04-06T12:41:50;102332.75;;;2.24;71.52